Robinson Cano (2B, SEA)

Avg
0.295
HR
14
wOBA
0.394
nERD
6.49

Most Recent Player News

Seattle Mariners second baseman Robinson Cano almost single-handedly lifted the Mariners to victory in Saturday's 3-2 win, 10-inning win over the Houston Astros, homering twice and collecting four hits.

What It Means:

Cano has been absolute money in May, and he continued to sizzle on Saturday. He hit a solo home run off Dallas Keuchel in the fourth inning. That was sweet, but his second home run was even more pivotal. After the Astros tied the contest at 2-2 in the ninth inning, Cano swatted a go-ahead solo homer off reliever Tony Sipp in the 10th inning.

The star second baseman is now slashing a beautiful .306/.358/.621 with a .416 wOBA, 11 homers and 32 RBI's over 134 plate appearances. Cano does own a home-run-to-fly-ball ratio of 25.0 percent, which is well above his career average of 14.2 percent.

Source: Rotoworld.com
Posted on Sunday, May 8th, 2016 at 9:10am EDT

Robinson Cano Player Profile

Current Stats
Batting Average0.295
Hits56
SLUG0.584
OBP0.345
wOBA0.394
Statistical RankingsRank
Plate Appearances206#8
Runs31#9
Home Runs14#2
RBI43#1
Stolen Bases0#57
nERD6.49#7

Fantasy RankingsRank
Fantasy Score 6.14 #4
Projected Stats
Batting Average0.290
Hits176
SLUG0.502
OBP0.342
wOBA0.359
Statistical RankingsRank
Plate Appearances665#16
Runs87#25
Home Runs30#19
RBI106#4
Stolen Bases2#212
Batting Average0.290#27
OPS0.844#24

Fantasy RankingsRank
Fantasy Score 5.86 #28
Remaining This Season
Batting Average0.288
Hits120
SLUG0.465
OBP0.341
wOBA0.343
Statistical RankingsRank
Plate Appearances459#147
Runs56#125
Home Runs16#84
RBI63#76
Stolen Bases2#204
Batting Average0.288#28
OPS0.806#46

Fantasy RankingsRank
Fantasy Score 1.41 #113

Projections By Game

Date Opponent PA AB BB 1B 2B 3B HR R RBI SB HBP SO AVG
2016-04-04 Texas 4.57 4.23 0.28 0.79 0.27 0.01 0.13 0.70 0.54 0.02 0.04 0.70 0.282
2016-04-05 Texas 4.63 4.24 0.33 0.75 0.31 0.00 0.15 0.72 0.60 0.01 0.04 0.70 0.283
2016-04-06 Texas 4.63 4.36 0.22 0.84 0.30 0.01 0.13 0.70 0.59 0.01 0.01 0.65 0.288
2016-04-08 Oakland 4.39 4.05 0.26 0.72 0.21 0.01 0.17 0.55 0.54 0.03 0.04 0.68 0.271
2016-04-09 Oakland 4.39 4.08 0.25 0.75 0.19 0.00 0.12 0.43 0.43 0.01 0.03 0.77 0.260
2016-04-10 Oakland 4.42 4.04 0.31 0.76 0.21 0.01 0.06 0.46 0.35 0.01 0.05 0.64 0.257
2016-04-11 Texas 4.40 4.12 0.24 0.83 0.31 0.01 0.11 0.56 0.46 0.02 0.01 0.62 0.302
2016-04-12 Texas 4.43 4.10 0.26 0.78 0.28 0.01 0.20 0.59 0.56 0.02 0.02 0.64 0.305
2016-04-13 Texas 4.48 4.13 0.28 0.88 0.30 0.01 0.15 0.61 0.57 0.02 0.02 0.65 0.319
2016-04-15 N.Y. Yankees 4.59 4.21 0.32 0.84 0.21 0.00 0.11 0.52 0.55 0.03 0.01 0.76 0.271
2016-04-16 N.Y. Yankees 4.64 4.26 0.36 0.97 0.21 0.00 0.16 0.65 0.64 0.04 0.00 0.66 0.310
2016-04-17 N.Y. Yankees 4.58 4.29 0.24 0.83 0.29 0.01 0.10 0.44 0.55 0.04 0.00 0.76 0.284
2016-04-19 Cleveland 4.44 4.08 0.26 0.81 0.19 0.00 0.13 0.41 0.62 0.02 0.02 0.71 0.269
2016-04-20 Cleveland 4.49 4.12 0.27 0.81 0.25 0.00 0.12 0.50 0.67 0.03 0.01 0.75 0.281
2016-04-21 Cleveland 4.58 4.21 0.29 0.81 0.27 0.01 0.10 0.46 0.47 0.01 0.04 0.56 0.273
2016-04-22 L.A. Angels 4.52 4.18 0.25 0.70 0.25 0.01 0.12 0.50 0.61 0.01 0.04 0.64 0.256
2016-04-23 L.A. Angels 4.52 4.04 0.37 0.65 0.21 0.02 0.12 0.50 0.52 0.01 0.06 0.70 0.245
2016-04-24 L.A. Angels 4.53 4.12 0.31 0.71 0.25 0.03 0.12 0.50 0.55 0.02 0.04 0.66 0.266
2016-04-25 Houston 4.37 4.10 0.20 0.78 0.25 0.01 0.06 0.32 0.30 0.00 0.02 0.35 0.256
2016-04-26 Houston 4.34 4.02 0.28 0.85 0.24 0.01 0.10 0.39 0.56 0.02 0.01 0.57 0.284
2016-04-27 Houston 4.33 3.96 0.33 0.85 0.17 0.00 0.06 0.32 0.36 0.06 0.02 0.69 0.264
2016-04-29 Kansas City 4.42 4.04 0.28 0.72 0.18 0.01 0.10 0.44 0.34 0.01 0.08 0.64 0.245
2016-04-30 Kansas City 4.38 3.93 0.35 0.58 0.21 0.01 0.11 0.39 0.44 0.00 0.07 0.59 0.227
Date Opponent PA AB BB 1B 2B 3B HR R RBI SB HBP SO AVG
2016-05-01 Kansas City 4.34 3.92 0.35 0.52 0.26 0.02 0.16 0.48 0.52 0.02 0.03 0.60 0.236
2016-05-02 Oakland 4.63 4.31 0.28 0.88 0.19 0.02 0.14 0.56 0.60 0.01 0.02 0.51 0.276
2016-05-03 Oakland 4.60 4.20 0.33 0.76 0.22 0.01 0.12 0.51 0.49 0.01 0.04 0.65 0.260
2016-05-04 Oakland 4.66 4.22 0.33 0.98 0.20 0.00 0.18 0.62 0.63 0.01 0.05 0.57 0.316
2016-05-05 Houston 4.57 4.19 0.30 0.81 0.29 0.02 0.11 0.59 0.62 0.01 0.02 0.60 0.291
2016-05-06 Houston 4.59 4.30 0.23 0.96 0.30 0.02 0.13 0.49 0.66 0.03 0.02 0.48 0.321
2016-05-07 Houston 4.51 4.17 0.31 0.93 0.24 0.00 0.06 0.51 0.57 0.01 0.00 0.72 0.295
2016-05-08 Houston 4.54 4.16 0.30 0.96 0.23 0.00 0.11 0.56 0.70 0.01 0.02 0.63 0.317
2016-05-09 Tampa Bay 4.38 4.03 0.25 0.67 0.22 0.01 0.10 0.39 0.51 0.00 0.06 0.70 0.249
2016-05-10 Tampa Bay 4.33 3.89 0.29 0.57 0.21 0.01 0.12 0.34 0.53 0.00 0.06 0.63 0.231
2016-05-11 Tampa Bay 4.34 3.93 0.28 0.72 0.19 0.00 0.14 0.41 0.55 0.00 0.04 0.72 0.264
2016-05-13 L.A. Angels 4.39 4.02 0.27 0.65 0.25 0.02 0.13 0.47 0.48 0.01 0.04 0.65 0.261
2016-05-14 L.A. Angels 4.40 3.99 0.31 0.74 0.17 0.01 0.13 0.51 0.49 0.02 0.05 0.71 0.264
2016-05-15 L.A. Angels 4.36 3.95 0.32 0.71 0.21 0.01 0.19 0.53 0.53 0.02 0.06 0.59 0.285
2016-05-17 Baltimore 4.57 4.21 0.30 0.95 0.19 0.01 0.12 0.54 0.62 0.01 0.03 0.75 0.301
2016-05-18 Baltimore 4.62 4.27 0.28 0.89 0.23 0.00 0.13 0.60 0.68 0.01 0.03 0.76 0.294
2016-05-19 Baltimore 4.63 4.22 0.35 0.93 0.21 0.01 0.14 0.58 0.64 0.01 0.01 0.73 0.310
2016-05-20 Cincinnati 4.69 4.27 0.35 0.95 0.27 0.01 0.12 0.63 0.71 0.01 0.03 0.71 0.316
2016-05-21 Cincinnati 4.63 4.25 0.26 0.85 0.30 0.02 0.22 0.74 0.82 0.01 0.07 0.58 0.327
2016-05-22 Cincinnati 4.73 4.33 0.33 0.97 0.27 0.02 0.20 0.62 0.94 0.01 0.02 0.64 0.334
2016-05-23 Oakland 4.39 4.01 0.31 0.73 0.22 0.00 0.15 0.53 0.51 0.01 0.01 0.70 0.276
2016-05-24 Oakland 4.46 4.09 0.33 0.85 0.20 0.00 0.14 0.49 0.55 0.01 0.02 0.69 0.296
2016-05-25 Oakland 4.41 4.04 0.30 0.86 0.26 0.00 0.19 0.56 0.71 0.01 0.02 0.62 0.328
2016-05-27 Minnesota 4.43 4.11 0.23 0.87 0.30 0.01 0.23 0.60 0.72 0.00 0.03 0.47 0.335
2016-05-28 Minnesota 4.37 4.09 0.24 0.73 0.26 0.01 0.18 0.51 0.57 0.03 0.01 0.58 0.286
2016-05-29 Minnesota 4.42 4.02 0.30 0.69 0.24 0.00 0.11 0.46 0.49 0.02 0.04 0.50 0.255
2016-05-30 San Diego 4.43 4.00 0.38 0.86 0.19 0.02 0.20 0.54 0.75 0.01 0.02 0.73 0.322
2016-05-31 San Diego 4.44 3.93 0.44 0.79 0.21 0.01 0.19 0.53 0.83 0.01 0.03 0.72 0.304
Date Opponent PA AB BB 1B 2B 3B HR R RBI SB HBP SO AVG
2016-06-01 San Diego 4.72 4.27 0.35 0.95 0.29 0.01 0.21 0.59 0.85 0.01 0.03 0.61 0.338
2016-06-02 San Diego 4.68 4.28 0.33 0.86 0.22 0.03 0.22 0.56 0.82 0.01 0.05 0.77 0.312
2016-06-03 Texas 4.71 4.26 0.37 0.86 0.18 0.01 0.18 0.70 0.84 0.01 0.03 0.63 0.289
2016-06-04 Texas 4.65 4.30 0.26 0.83 0.26 0.01 0.26 0.71 1.03 0.01 0.02 0.58 0.315

Statlines By Game

Date Opponent PA AB BB 1B 2B 3B HR R RBI SB HBP SO AVG
2016-04-04 Texas 4 4 0 0 0 0 1 1 1 0 0 1 0.250
2016-04-05 Texas 5 5 0 0 0 0 1 1 1 0 0 0 0.200
2016-04-06 Texas 5 4 1 0 0 0 2 2 5 0 0 0 0.500
2016-04-08 Oakland 4 4 0 1 0 0 0 0 0 0 0 0 0.250
2016-04-09 Oakland 4 4 0 0 1 0 0 0 0 0 0 2 0.250
2016-04-10 Oakland 5 4 1 0 0 0 0 0 0 0 0 2 0.000
2016-04-11 Texas 4 4 0 0 0 0 0 0 0 0 0 0 0.000
2016-04-12 Texas 4 4 0 0 0 0 0 0 0 0 0 2 0.000
2016-04-13 Texas 5 4 1 0 0 0 1 1 1 0 0 0 0.250
2016-04-15 N.Y. Yankees 5 5 0 2 0 0 0 1 1 0 0 0 0.400
2016-04-16 N.Y. Yankees 4 3 1 1 0 0 0 1 1 0 0 0 0.333
2016-04-17 N.Y. Yankees 4 4 0 1 0 0 0 0 0 0 0 1 0.250
2016-04-19 Cleveland 4 3 1 0 1 0 0 0 0 0 0 0 0.333
2016-04-20 Cleveland 4 4 0 0 0 0 0 0 0 0 0 1 0.000
2016-04-21 Cleveland 6 5 1 1 1 0 1 2 4 0 0 0 0.600
2016-04-22 L.A. Angels 5 4 1 1 0 0 0 1 0 0 0 0 0.250
2016-04-23 L.A. Angels 4 3 0 0 0 0 0 0 0 0 1 1 0.000
2016-04-24 L.A. Angels 5 5 0 0 0 0 0 0 0 0 0 1 0.000
2016-04-25 Houston 4 3 1 1 0 0 0 0 1 0 0 1 0.333
2016-04-26 Houston 4 4 0 1 0 0 1 1 6 0 0 0 0.500
2016-04-27 Houston 5 5 0 1 0 0 1 1 3 0 0 0 0.400
2016-04-29 Kansas City 4 4 0 0 0 0 0 0 0 0 0 0 0.000
2016-04-30 Kansas City 5 4 1 0 0 0 0 0 0 0 0 2 0.000
Date Opponent PA AB BB 1B 2B 3B HR R RBI SB HBP SO AVG
2016-05-01 Kansas City 4 4 0 2 0 0 0 0 0 0 0 0 0.500
2016-05-02 Oakland 4 4 0 2 1 0 0 2 0 0 0 0 0.750
2016-05-03 Oakland 4 4 0 0 1 0 1 2 1 0 0 2 0.500
2016-05-04 Oakland 5 5 0 2 0 0 0 1 1 0 0 0 0.400
2016-05-05 Houston 5 5 0 2 1 0 0 0 4 0 0 0 0.600
2016-05-06 Houston 4 4 0 1 0 0 0 0 0 0 0 0 0.250
2016-05-07 Houston 5 5 0 2 0 0 2 2 2 0 0 0 0.800
2016-05-08 Houston 4 4 0 0 0 0 1 1 1 0 0 1 0.250
2016-05-09 Tampa Bay 5 5 0 1 0 0 0 0 0 0 0 2 0.200
2016-05-10 Tampa Bay 4 4 0 2 0 0 0 1 0 0 0 1 0.500
2016-05-11 Tampa Bay 5 5 0 0 1 0 0 1 0 0 0 1 0.200
2016-05-13 L.A. Angels 5 5 0 0 1 0 0 0 0 0 0 1 0.200
2016-05-14 L.A. Angels 5 5 0 1 0 0 0 1 1 0 0 2 0.200
2016-05-15 L.A. Angels 4 3 1 0 0 0 0 0 0 0 0 0 0.000
2016-05-17 Baltimore 4 4 0 1 2 0 0 3 2 0 0 0 0.750
2016-05-18 Baltimore 4 4 0 0 1 0 0 0 0 0 0 1 0.250
2016-05-19 Baltimore 4 4 0 0 1 0 0 1 0 0 0 1 0.250
2016-05-20 Cincinnati 5 3 0 0 0 0 0 1 1 0 2 0 0.000
2016-05-21 Cincinnati 5 3 2 0 0 0 0 0 0 0 0 0 0.000
2016-05-22 Cincinnati 5 4 0 1 0 0 0 0 2 0 0 1 0.250
2016-05-23 Oakland 4 4 0 1 0 0 0 0 0 0 0 0 0.250
2016-05-24 Oakland 4 4 0 0 1 0 1 1 3 0 0 0 0.500
2016-05-25 Oakland 5 5 0 1 0 0 1 2 1 0 0 1 0.400

DFS Performance

  FanDuel DraftKings FantasyFeud DraftDay FantasyAces FantasyScore Yahoo
Date Opponent FP Value FP Value FP Value FP Value FP Value FP Value FP Value
2016-04-04 Texas 18.7 5.8 14 3 7 1 27 3 6 1.2 6 1.1 12
2016-04-05 Texas 18.7 5.8 14 3 7.5 1 26 2.8 6.5 1.3 6 1.1 12
2016-04-06 Texas 50.9 15.4 36 7.7 22 3.1 78 8.3 17.75 3.2 16 3 32
2016-04-08 Oakland 3 0.8 3 0.7 1.25 0.1 2 0.2 1 0.2 1 0.2 2
2016-04-09 Oakland 6 1.6 5 1.2 1 0.1 7 0.6 1 0.2 2 0.4 4
2016-04-10 Oakland 3 0.8 2 0.5 0 0 1 0.1 0 0 1 0.2 2
2016-04-11 Texas 0 0 0 0 0 0 -4 -0.4 0 0 0 0 0 0
2016-04-12 Texas 0 0 0 0 -1 -0.1 -4 -0.4 -1 -0.2 0 0 0 0
2016-04-13 Texas 21.7 6 16 3.6 8.5 1.2 32 3.5 7.5 1.4 7 1.3 14
2016-04-15 N.Y. Yankees 12.7 3.5 10 2.3 6 0.8 17 1.9 4.5 0.8 4 0.8 8
2016-04-16 N.Y. Yankees 12.7 3.5 9 2.3 5.75 0.8 18 2 4.5 0.8 4 0.8 8
2016-04-17 N.Y. Yankees 3 0.8 3 0.8 0.75 0.1 2 0.2 0.5 0.1 1 0.2 2
2016-04-19 Cleveland 9 2.6 7 1.7 3 0.4 13 1.4 3 0.6 3 0.6 6
2016-04-20 Cleveland 0 0 0 0 -0.5 -0.1 -4 -0.4 -0.5 -0.1 0 0 0 0
2016-04-21 Cleveland 44.4 12.7 32 7 19.25 2.6 68 7.6 15.5 2.9 14 2.6 28
2016-04-22 L.A. Angels 9.2 2.7 7 1.5 3.75 0.5 12 1.4 3.25 0.6 3 0.6 6
2016-04-23 L.A. Angels 3 0.8 2 0.5 0.5 0.1 2 0.2 0 0 1 0.2 0 0
2016-04-24 L.A. Angels 0 0 0 0 -0.5 -0.1 -5 -0.5 -0.5 -0.1 0 0 0 0
2016-04-25 Houston 9.5 2.6 7 1.6 3.75 0.5 13 1.4 2.75 0.5 3 0.6 6
2016-04-26 Houston 39.2 11.5 27 6.8 18.75 2.7 58 6.5 13.75 2.6 12 2.3 24
2016-04-27 Houston 28.7 8.4 21 5.3 12.75 1.8 42 5 10 1.9 9 1.7 18
2016-04-29 Kansas City 0 0 0 0 0 0 -4 -0.4 0 0 0 0 0 0
2016-04-30 Kansas City 3 0.8 2 0.5 0 0 1 0.1 0 0 1 0.2 2
  FanDuel DraftKings FantasyFeud DraftDay FantasyAces FantasyScore Yahoo
Date Opponent FP Value FP Value FP Value FP Value FP Value FP Value FP Value
2016-05-01 Kansas City 6 1.6 6 1.2 2.5 0.3 8 0.8 2 0.4 2 0.4 4
2016-05-02 Oakland 18.4 5.1 15 3.1 7.5 0.9 29 3.2 6.5 1.2 6 1.1 12
2016-05-03 Oakland 27.9 7.8 21 5.1 10 1.4 43 4.8 8.75 1.6 9 1.7 18
2016-05-04 Oakland 12.7 3.4 10 2 6 0.7 17 1.9 4.5 0.8 4 0.7 8
2016-05-05 Houston 26 6.7 19 3.7 12.5 1.4 38 3.8 9 1.7 8 1.5 16
2016-05-06 Houston 3 0.8 3 0.6 1.25 0.1 2 0.2 1 0.2 1 0.2 2
2016-05-07 Houston 43.4 10.6 34 7.1 17.5 2 69 6.4 15 2.8 14 2.6 28
2016-05-08 Houston 18.7 4.6 14 3.2 7 0.8 27 2.6 6 1.1 6 1.1 12
2016-05-09 Tampa Bay 3 0.7 3 0.7 0.25 0 1 0.1 0 0 1 0.2 2
2016-05-10 Tampa Bay 9.2 2.1 8 2 3.5 0.4 13 1.2 2.75 0.5 3 0.6 6
2016-05-11 Tampa Bay 9.2 2.2 7 1.6 3 0.3 11 1 2.75 0.5 3 0.6 6
2016-05-13 L.A. Angels 6 1.5 5 1 1.5 0.2 6 0.6 1.5 0.3 2 0.4 4
2016-05-14 L.A. Angels 9.7 2.4 7 1.4 3.75 0.4 11 1.2 2.5 0.4 3 0.6 6
2016-05-15 L.A. Angels 3 0.7 2 0.4 1 0.1 2 0.2 1 0.2 1 0.2 2
2016-05-17 Baltimore 31.6 7.9 23 4.6 13.75 1.6 49 4.3 11.25 2.1 10 1.8 20
2016-05-18 Baltimore 6 1.5 5 0.9 1.5 0.2 7 0.6 1.5 0.3 2 0.4 4
2016-05-19 Baltimore 9.2 2.2 7 1.3 3 0.3 12 1 2.75 0.5 3 0.5 6
2016-05-20 Cincinnati 12.7 3.1 8 1.7 4.5 0.5 17 1.4 3.5 0.6 3 0.5 4
2016-05-21 Cincinnati 6 1.5 4 0.8 2 0.2 7 0.6 2 0.4 2 0.4 4
2016-05-22 Cincinnati 10 2.4 7 1.6 4.75 0.5 12 1 3 0.6 3 0.5 6
2016-05-23 Oakland 3 0.7 3 0.7 1.25 0.1 2 0.2 1 0.2 1 0.2 2
2016-05-24 Oakland 31.7 7.4 23 4.7 13.5 1.4 48 4.8 11 2 10 1.8 20
2016-05-25 Oakland 24.9 5.8 19 3.6 9.75 1.1 37 3.7 8.25 1.5 8 1.4 16

Player History

Year Age Team G PA H HR RBI SB BA
2016 33 Seattle 46 206 56 14 43 0 0.295
2015 32 Seattle 156 674 179 21 79 2 0.287
2014 31 Seattle 157 665 187 14 82 10 0.314
2013 30 N.Y. Yankees 160 681 190 27 107 7 0.314
2012 29 N.Y. Yankees 161 697 196 33 94 3 0.313
2011 28 N.Y. Yankees 159 681 188 28 118 8 0.302
2010 27 N.Y. Yankees 160 696 200 29 109 3 0.319
2009 26 N.Y. Yankees 161 674 204 25 85 5 0.320
2008 25 N.Y. Yankees 159 634 162 14 72 2 0.271
2007 24 N.Y. Yankees 160 669 189 19 97 4 0.306
2006 23 N.Y. Yankees 122 508 165 15 78 5 0.342
2005 22 N.Y. Yankees 132 551 155 14 62 1 0.297
Similar Players

Similar Players

Sorry! We don't enough data on this player to make significant comparisons. This is likely due to the fact that this player is new to the league, or is an unknown commodity in terms of talent.